createdAt,value
2019-05-26T00:02:11.962Z,100822.30
2019-05-26T00:04:42.540Z,100816.16
2019-05-26T00:07:13.129Z,100819.91
2019-05-26T00:09:43.713Z,100816.69
2019-05-26T00:12:15.997Z,100813.42
2019-05-26T00:14:46.835Z,100812.05
2019-05-26T00:17:17.576Z,100814.97
2019-05-26T00:19:48.277Z,100813.79
2019-05-26T00:22:18.959Z,100809.55
2019-05-26T00:24:49.543Z,100810.23
2019-05-26T00:27:20.125Z,100808.17
2019-05-26T00:29:50.714Z,100812.95
2019-05-26T00:32:22.279Z,100811.09
2019-05-26T00:34:52.839Z,100813.31
2019-05-26T00:37:23.423Z,100809.73
2019-05-26T00:39:54.006Z,100815.84
2019-05-26T00:42:24.621Z,100820.27
2019-05-26T00:44:55.202Z,100815.48
2019-05-26T00:47:25.789Z,100814.66
2019-05-26T00:49:56.368Z,100816.54
2019-05-26T00:52:27.078Z,100811.61
2019-05-26T00:54:57.638Z,100808.56
2019-05-26T00:57:28.494Z,100810.78
2019-05-26T00:59:59.096Z,100816.22
2019-05-26T01:02:29.658Z,100818.09
2019-05-26T01:05:00.476Z,100813.84
2019-05-26T01:07:31.041Z,100820.47
2019-05-26T01:10:03.887Z,100809.41
2019-05-26T01:12:34.665Z,100812.48
2019-05-26T01:15:08.415Z,100817.92
2019-05-26T01:17:40.451Z,100811.45
2019-05-26T01:20:12.825Z,100806.52
2019-05-26T01:22:44.844Z,100809.75
2019-05-26T01:25:16.972Z,100810.95
2019-05-26T01:27:48.539Z,100815.54
2019-05-26T01:30:21.717Z,100816.73
2019-05-26T01:32:52.332Z,100811.80
2019-05-26T01:35:24.219Z,100820.65
2019-05-26T01:37:54.822Z,100813.84
2019-05-26T01:40:31.197Z,100811.45
2019-05-26T01:43:03.383Z,100809.75
2019-05-26T01:45:34.188Z,100808.39
2019-05-26T01:48:05.698Z,100816.56
2019-05-26T01:50:36.423Z,100811.45
2019-05-26T01:53:07.374Z,100808.39
2019-05-26T01:55:37.946Z,100814.34
2019-05-26T01:58:08.526Z,100822.00
2019-05-26T02:00:41.011Z,100813.98
2019-05-26T02:03:11.633Z,100816.05
2019-05-26T02:05:42.502Z,100799.35
2019-05-26T02:08:14.337Z,100804.45
2019-05-26T02:10:44.909Z,100799.87
2019-05-26T02:13:15.499Z,100797.66
2019-05-26T02:15:46.088Z,100801.23
2019-05-26T02:18:16.678Z,100802.41
2019-05-26T02:20:48.241Z,100808.55
2019-05-26T02:23:18.836Z,100813.48
2019-05-26T02:25:49.465Z,100815.19
2019-05-26T02:28:20.254Z,100800.72
2019-05-26T02:30:50.916Z,100800.48
2019-05-26T02:33:21.502Z,100801.67
2019-05-26T02:35:52.095Z,100800.83
2019-05-26T02:38:26.008Z,100799.68
2019-05-26T02:40:57.921Z,100800.83
2019-05-26T02:43:28.576Z,100799.79
2019-05-26T02:45:59.202Z,100806.97
2019-05-26T02:48:29.786Z,100799.63
2019-05-26T02:51:00.419Z,100806.61
2019-05-26T02:53:30.997Z,100807.18
2019-05-26T02:56:02.012Z,100800.81
2019-05-26T02:58:32.678Z,100796.22
2019-05-26T03:01:03.507Z,100803.37
2019-05-26T03:03:34.139Z,100798.42
2019-05-26T03:06:06.355Z,100799.30
2019-05-26T03:08:37.888Z,100796.28
2019-05-26T03:11:12.286Z,100793.33
2019-05-26T03:13:47.195Z,100799.78
2019-05-26T03:16:20.754Z,100789.21
2019-05-26T03:18:56.686Z,100790.66
2019-05-26T03:21:29.940Z,100791.67
2019-05-26T03:24:04.882Z,100794.91
2019-05-26T03:26:35.651Z,100787.53
2019-05-26T03:29:06.255Z,100788.39
2019-05-26T03:31:37.053Z,100791.96
2019-05-26T03:34:07.940Z,100793.65
2019-05-26T03:36:38.563Z,100787.84
2019-05-26T03:39:09.143Z,100790.05
2019-05-26T03:41:39.753Z,100799.41
2019-05-26T03:44:10.336Z,100793.63
2019-05-26T03:46:40.925Z,100790.23
2019-05-26T03:49:11.494Z,100786.97
2019-05-26T03:51:42.073Z,100789.01
2019-05-26T03:54:12.709Z,100782.02
2019-05-26T03:56:43.254Z,100785.05
2019-05-26T03:59:13.836Z,100788.09
2019-05-26T04:01:44.442Z,100793.53
2019-05-26T04:04:15.029Z,100799.98
2019-05-26T04:06:45.627Z,100798.24
2019-05-26T04:09:16.323Z,100800.17
2019-05-26T04:11:46.891Z,100799.84
2019-05-26T04:14:17.571Z,100804.77
2019-05-26T04:16:48.155Z,100802.92
2019-05-26T04:19:18.839Z,100802.60
2019-05-26T04:21:49.421Z,100796.77
2019-05-26T04:24:20.028Z,100799.91
2019-05-26T04:26:50.634Z,100801.62
2019-05-26T04:29:21.246Z,100801.62
2019-05-26T04:31:51.831Z,100800.77
2019-05-26T04:34:22.423Z,100795.98
2019-05-26T04:36:53.015Z,100805.52
2019-05-26T04:39:23.690Z,100802.47
2019-05-26T04:41:54.303Z,100800.90
2019-05-26T04:44:24.869Z,100798.00
2019-05-26T04:46:55.484Z,100797.29
2019-05-26T04:49:27.062Z,100790.45
2019-05-26T04:51:58.156Z,100797.55
2019-05-26T04:54:30.192Z,100792.52
2019-05-26T04:57:00.783Z,100795.80
2019-05-26T04:59:31.372Z,100788.82
2019-05-26T05:02:01.967Z,100793.94
2019-05-26T05:04:32.569Z,100798.73
2019-05-26T05:07:03.164Z,100794.92
2019-05-26T05:09:33.879Z,100792.72
2019-05-26T05:12:05.731Z,100797.84
2019-05-26T05:14:37.090Z,100791.86
2019-05-26T05:17:07.695Z,100796.29
2019-05-26T05:19:38.268Z,100797.58
2019-05-26T05:22:08.850Z,100795.44
2019-05-26T05:24:39.435Z,100800.58
2019-05-26T05:27:10.041Z,100804.56
2019-05-26T05:29:40.728Z,100799.32
2019-05-26T05:32:11.451Z,100793.25
2019-05-26T05:34:42.031Z,100796.35
2019-05-26T05:37:12.718Z,100800.66
2019-05-26T05:39:43.419Z,100797.95
2019-05-26T05:42:14.004Z,100799.47
2019-05-26T05:44:44.581Z,100802.29
2019-05-26T05:47:15.652Z,100794.38
2019-05-26T05:49:46.448Z,100800.41
2019-05-26T05:52:17.050Z,100803.63
2019-05-26T05:54:47.640Z,100800.91
2019-05-26T05:57:18.280Z,100798.64
2019-05-26T05:59:48.929Z,100794.38
2019-05-26T06:02:20.693Z,100794.51
2019-05-26T06:04:51.832Z,100792.26
2019-05-26T06:07:22.491Z,100792.91
2019-05-26T06:09:53.569Z,100796.69
2019-05-26T06:12:24.229Z,100795.02
2019-05-26T06:14:56.835Z,100789.73
2019-05-26T06:17:28.206Z,100788.02
2019-05-26T06:19:59.407Z,100800.72
2019-05-26T06:22:30.291Z,100800.72
2019-05-26T06:25:00.883Z,100793.77
2019-05-26T06:27:31.540Z,100794.91
2019-05-26T06:30:04.450Z,100805.50
2019-05-26T06:32:35.134Z,100800.59
2019-05-26T06:35:06.260Z,100797.40
2019-05-26T06:37:38.739Z,100799.35
2019-05-26T06:40:11.133Z,100794.75
2019-05-26T06:42:42.296Z,100796.54
2019-05-26T06:45:14.192Z,100803.48
2019-05-26T06:47:45.777Z,100800.61
2019-05-26T06:50:18.292Z,100798.72
2019-05-26T06:52:49.617Z,100799.59
2019-05-26T06:55:21.208Z,100790.55
2019-05-26T06:57:52.333Z,100790.55
2019-05-26T07:00:23.154Z,100793.30
2019-05-26T07:02:54.604Z,100789.03
2019-05-26T07:05:25.149Z,100788.38
2019-05-26T07:07:55.750Z,100786.41
2019-05-26T07:10:27.301Z,100778.59
2019-05-26T07:12:57.924Z,100779.22
2019-05-26T07:15:28.778Z,100775.94
2019-05-26T07:17:59.496Z,100780.60
2019-05-26T07:20:30.612Z,100782.17
2019-05-26T07:23:02.831Z,100778.31
2019-05-26T07:25:33.623Z,100777.40
2019-05-26T07:28:06.125Z,100786.29
2019-05-26T07:30:37.446Z,100774.64
2019-05-26T07:33:08.188Z,100776.75
2019-05-26T07:35:39.129Z,100785.42
2019-05-26T07:38:09.884Z,100779.80
2019-05-26T07:40:40.735Z,100777.92
2019-05-26T07:43:11.818Z,100785.46
2019-05-26T07:45:42.609Z,100784.76
2019-05-26T07:48:13.234Z,100780.27
2019-05-26T07:50:44.014Z,100786.68
2019-05-26T07:53:16.125Z,100790.30
2019-05-26T07:55:46.714Z,100780.17
2019-05-26T07:58:17.342Z,100779.45
2019-05-26T08:00:47.924Z,100778.36
2019-05-26T08:03:18.569Z,100787.45
2019-05-26T08:05:50.338Z,100779.26
2019-05-26T08:08:22.938Z,100772.41
2019-05-26T08:10:54.352Z,100773.32
2019-05-26T08:13:25.329Z,100770.67
2019-05-26T08:15:58.211Z,100769.76
2019-05-26T08:18:28.796Z,100770.52
2019-05-26T08:20:59.401Z,100763.34
2019-05-26T08:23:30.170Z,100769.30
2019-05-26T08:26:00.963Z,100769.48
2019-05-26T08:28:31.651Z,100760.84
2019-05-26T08:31:02.337Z,100762.39
2019-05-26T08:33:33.017Z,100755.19
2019-05-26T08:36:04.008Z,100760.84
2019-05-26T08:38:34.605Z,100752.86
2019-05-26T08:41:07.510Z,100756.88
2019-05-26T08:43:38.100Z,100759.00
2019-05-26T08:46:09.058Z,100749.41
2019-05-26T08:48:39.714Z,100752.27
2019-05-26T08:51:11.505Z,100753.36
2019-05-26T08:53:42.247Z,100753.08
2019-05-26T08:56:13.102Z,100749.40
2019-05-26T08:58:43.882Z,100753.11
2019-05-26T09:01:14.893Z,100742.91
2019-05-26T09:03:45.627Z,100738.00
2019-05-26T09:06:16.316Z,100736.31
2019-05-26T09:08:47.046Z,100730.96
2019-05-26T09:11:17.741Z,100727.45
2019-05-26T09:13:48.582Z,100723.34
2019-05-26T09:16:19.260Z,100725.69
2019-05-26T09:18:50.361Z,100724.59
2019-05-26T09:21:21.194Z,100716.51
2019-05-26T09:23:51.796Z,100709.67
2019-05-26T09:26:22.898Z,100722.56
2019-05-26T09:28:53.471Z,100719.97
2019-05-26T09:31:24.053Z,100723.05
2019-05-26T09:33:54.635Z,100718.24
2019-05-26T09:36:25.551Z,100716.25
2019-05-26T09:38:56.106Z,100714.87
2019-05-26T09:41:26.783Z,100707.45
2019-05-26T09:43:57.418Z,100717.75
2019-05-26T09:46:28.012Z,100705.80
2019-05-26T09:49:00.912Z,100706.70
2019-05-26T09:51:31.295Z,100707.20
2019-05-26T09:54:02.391Z,100708.34
2019-05-26T09:56:33.771Z,100710.12
2019-05-26T09:59:04.598Z,100713.27
2019-05-26T10:01:35.188Z,100704.34
2019-05-26T10:04:06.634Z,100705.50
2019-05-26T10:06:37.406Z,100701.83
2019-05-26T10:09:08.743Z,100698.09
2019-05-26T10:11:39.418Z,100697.05
2019-05-26T10:14:10.323Z,100685.66
2019-05-26T10:16:41.067Z,100696.00
2019-05-26T10:19:11.619Z,100686.25
2019-05-26T10:21:42.206Z,100683.60
2019-05-26T10:24:12.869Z,100686.03
2019-05-26T10:26:43.454Z,100681.17
2019-05-26T10:29:16.743Z,100681.42
2019-05-26T10:31:47.428Z,100680.11
2019-05-26T10:34:18.052Z,100677.57
2019-05-26T10:36:48.629Z,100671.70
2019-05-26T10:39:19.206Z,100665.66
2019-05-26T10:41:49.765Z,100668.19
2019-05-26T10:44:20.343Z,100670.43
2019-05-26T10:46:50.942Z,100670.34
2019-05-26T10:49:21.511Z,100673.91
2019-05-26T10:51:52.097Z,100663.38
2019-05-26T10:54:22.669Z,100657.17
2019-05-26T10:56:53.498Z,100651.96
2019-05-26T10:59:24.311Z,100652.00
2019-05-26T11:01:54.985Z,100636.36
2019-05-26T11:04:25.567Z,100643.09
2019-05-26T11:06:56.981Z,100640.87
2019-05-26T11:09:27.653Z,100633.56
2019-05-26T11:11:58.260Z,100636.13
2019-05-26T11:14:28.816Z,100630.18
2019-05-26T11:17:00.397Z,100633.05
2019-05-26T11:19:31.113Z,100618.36
2019-05-26T11:22:01.712Z,100615.87
2019-05-26T11:24:32.293Z,100621.59
2019-05-26T11:27:10.292Z,100610.67
2019-05-26T11:29:36.229Z,100606.15
2019-05-26T11:32:06.817Z,100608.99
2019-05-26T11:34:37.508Z,100598.88
2019-05-26T11:37:09.263Z,100596.36
2019-05-26T11:39:39.896Z,100593.14
2019-05-26T11:42:13.681Z,100597.08
2019-05-26T11:44:42.857Z,100596.63
2019-05-26T11:47:13.535Z,100598.27
2019-05-26T11:49:44.525Z,100588.33
2019-05-26T11:52:15.122Z,100585.52
2019-05-26T11:54:45.713Z,100581.52
2019-05-26T11:57:50.468Z,100584.48
2019-05-26T12:00:22.306Z,100577.52
2019-05-26T12:02:52.979Z,100573.95
2019-05-26T12:05:23.567Z,100572.16
2019-05-26T12:07:54.146Z,100562.37
2019-05-26T12:10:24.825Z,100571.38
2019-05-26T12:12:55.684Z,100565.83
2019-05-26T12:15:26.414Z,100553.38
2019-05-26T12:17:57.015Z,100554.38
2019-05-26T12:20:27.626Z,100552.53
2019-05-26T12:22:58.301Z,100549.70
2019-05-26T12:25:28.986Z,100544.55
2019-05-26T12:27:59.659Z,100539.47
2019-05-26T12:30:30.472Z,100533.42
2019-05-26T12:33:01.095Z,100536.98
2019-05-26T12:35:42.406Z,100531.90
2019-05-26T12:38:13.236Z,100524.66
2019-05-26T12:40:44.843Z,100527.80
2019-05-26T12:43:15.651Z,100520.72
2019-05-26T12:45:46.315Z,100517.91
2019-05-26T12:48:17.026Z,100518.63
2019-05-26T12:50:47.864Z,100509.92
2019-05-26T12:53:18.647Z,100508.15
2019-05-26T12:55:49.385Z,100500.28
2019-05-26T12:58:20.051Z,100509.94
2019-05-26T13:00:54.622Z,100506.57
2019-05-26T13:03:22.937Z,100501.48
2019-05-26T13:05:53.703Z,100499.75
2019-05-26T13:08:24.726Z,100495.09
2019-05-26T13:10:56.346Z,100484.06
2019-05-26T13:13:28.140Z,100481.76
2019-05-26T13:15:58.775Z,100489.09
2019-05-26T13:18:29.370Z,100488.60
2019-05-26T13:20:59.950Z,100490.12
2019-05-26T13:23:30.544Z,100482.59
2019-05-26T13:26:01.148Z,100477.67
2019-05-26T13:28:32.832Z,100478.62
2019-05-26T13:31:03.437Z,100483.63
2019-05-26T13:33:34.222Z,100479.06
2019-05-26T13:36:05.186Z,100475.80
2019-05-26T13:38:35.775Z,100473.09
2019-05-26T13:41:07.470Z,100473.14
2019-05-26T13:43:38.079Z,100475.17
2019-05-26T13:46:09.040Z,100473.92
2019-05-26T13:48:39.933Z,100474.69
2019-05-26T13:51:10.719Z,100466.77
2019-05-26T13:53:41.397Z,100460.30
2019-05-26T13:56:11.881Z,100467.19
2019-05-26T13:58:42.453Z,100460.50
2019-05-26T14:01:13.137Z,100459.47
2019-05-26T14:03:43.752Z,100453.19
2019-05-26T14:06:14.375Z,100449.28
2019-05-26T14:08:44.954Z,100446.80
2019-05-26T14:11:17.018Z,100450.09
2019-05-26T14:13:48.367Z,100445.66
2019-05-26T14:16:20.336Z,100455.30
2019-05-26T14:18:53.625Z,100439.82
2019-05-26T14:21:24.205Z,100449.50
2019-05-26T14:23:54.769Z,100440.86
2019-05-26T14:26:25.357Z,100435.41
2019-05-26T14:28:55.919Z,100434.56
2019-05-26T14:31:26.735Z,100440.29
2019-05-26T14:33:57.290Z,100432.02
2019-05-26T14:36:27.864Z,100430.61
2019-05-26T14:38:59.911Z,100431.48
2019-05-26T14:41:30.508Z,100426.11
2019-05-26T14:44:01.300Z,100414.88
2019-05-26T14:46:31.952Z,100417.47
2019-05-26T14:49:02.574Z,100407.44
2019-05-26T14:51:34.769Z,100411.91
2019-05-26T14:54:05.396Z,100409.64
2019-05-26T14:56:36.180Z,100413.18
2019-05-26T14:59:09.133Z,100409.81
2019-05-26T15:01:39.968Z,100407.84
2019-05-26T15:04:10.624Z,100411.63
2019-05-26T15:06:41.279Z,100412.59
2019-05-26T15:09:24.395Z,100410.61
2019-05-26T15:11:45.239Z,100407.41
2019-05-26T15:14:18.082Z,100404.17
2019-05-26T15:16:49.747Z,100398.62
2019-05-26T15:19:20.409Z,100394.95
2019-05-26T15:21:51.509Z,100393.13
2019-05-26T15:24:22.267Z,100396.95
2019-05-26T15:26:53.071Z,100394.23
2019-05-26T15:29:23.672Z,100391.66
2019-05-26T15:31:56.386Z,100389.34
2019-05-26T15:34:26.994Z,100385.52
2019-05-26T15:36:57.584Z,100386.30
2019-05-26T15:39:28.170Z,100385.52
2019-05-26T15:41:58.926Z,100381.00
2019-05-26T15:44:29.643Z,100371.92
2019-05-26T15:47:00.347Z,100370.62
2019-05-26T15:49:31.283Z,100374.37
2019-05-26T15:52:03.420Z,100367.02
2019-05-26T15:54:34.063Z,100367.75
2019-05-26T15:57:05.710Z,100371.28
2019-05-26T15:59:36.394Z,100363.88
2019-05-26T16:02:08.638Z,100367.00
2019-05-26T16:04:39.359Z,100364.89
2019-05-26T16:07:10.087Z,100364.88
2019-05-26T16:09:41.825Z,100362.84
2019-05-26T16:12:13.882Z,100371.23
2019-05-26T16:14:44.458Z,100366.28
2019-05-26T16:17:15.192Z,100364.88
2019-05-26T16:19:45.771Z,100370.33
2019-05-26T16:22:16.764Z,100374.02
2019-05-26T16:24:48.496Z,100368.50
2019-05-26T16:27:19.964Z,100376.03
2019-05-26T16:29:50.736Z,100375.50
2019-05-26T16:32:21.320Z,100368.13
2019-05-26T16:34:51.976Z,100369.86
2019-05-26T16:37:40.191Z,100368.78
2019-05-26T16:40:11.707Z,100359.64
2019-05-26T16:42:43.092Z,100363.67
2019-05-26T16:45:14.713Z,100358.75
2019-05-26T16:47:45.275Z,100363.33
2019-05-26T16:50:16.029Z,100358.58
2019-05-26T16:52:48.790Z,100361.41
2019-05-26T16:55:19.920Z,100360.20
2019-05-26T16:57:51.558Z,100362.89
2019-05-26T17:00:23.865Z,100359.84
2019-05-26T17:02:55.007Z,100362.72
2019-05-26T17:05:26.097Z,100362.97
2019-05-26T17:07:57.670Z,100361.17
2019-05-26T17:10:28.849Z,100357.73
2019-05-26T17:13:01.995Z,100361.52
2019-05-26T17:15:32.712Z,100364.66
2019-05-26T17:18:04.784Z,100361.54
2019-05-26T17:20:37.121Z,100359.48
2019-05-26T17:23:07.816Z,100354.67
2019-05-26T17:25:38.516Z,100350.34
2019-05-26T17:28:10.615Z,100345.83
2019-05-26T17:30:41.290Z,100352.66
2019-05-26T17:33:13.530Z,100355.25
2019-05-26T17:35:44.118Z,100343.98
2019-05-26T17:38:14.725Z,100345.92
2019-05-26T17:40:45.302Z,100348.48
2019-05-26T17:43:16.058Z,100343.89
2019-05-26T17:45:47.307Z,100342.14
2019-05-26T17:48:18.681Z,100352.24
2019-05-26T17:50:49.366Z,100345.88
2019-05-26T17:53:21.530Z,100345.14
2019-05-26T17:55:52.954Z,100346.06
2019-05-26T17:58:40.742Z,100351.28
2019-05-26T18:01:13.778Z,100345.46
2019-05-26T18:03:47.645Z,100350.36
2019-05-26T18:06:18.557Z,100348.25
2019-05-26T18:08:50.108Z,100361.49
2019-05-26T18:11:20.965Z,100345.49
2019-05-26T18:13:51.846Z,100346.64
2019-05-26T18:16:22.733Z,100346.41
2019-05-26T18:18:54.236Z,100348.55
2019-05-26T18:21:25.451Z,100350.83
2019-05-26T18:23:56.850Z,100348.77
2019-05-26T18:26:29.415Z,100347.99
2019-05-26T18:29:00.070Z,100346.77
2019-05-26T18:31:30.749Z,100346.77
2019-05-26T18:34:02.171Z,100350.97
2019-05-26T18:36:34.754Z,100355.94
2019-05-26T18:39:08.791Z,100345.52
2019-05-26T18:41:40.298Z,100345.52
2019-05-26T18:44:11.433Z,100353.35
2019-05-26T18:46:42.585Z,100352.15
2019-05-26T18:49:13.323Z,100361.52
2019-05-26T18:51:44.545Z,100350.96
2019-05-26T18:54:17.126Z,100358.13
2019-05-26T18:56:47.897Z,100356.22
2019-05-26T18:59:19.009Z,100349.83
2019-05-26T19:01:50.408Z,100357.67
2019-05-26T19:04:21.542Z,100361.58
2019-05-26T19:06:52.652Z,100360.06
2019-05-26T19:09:23.419Z,100357.62
2019-05-26T19:11:54.672Z,100356.47
2019-05-26T19:14:26.021Z,100357.02
2019-05-26T19:16:57.011Z,100351.86
2019-05-26T19:19:28.084Z,100359.77
2019-05-26T19:21:59.690Z,100360.64
2019-05-26T19:24:31.093Z,100362.21
2019-05-26T19:27:02.536Z,100355.47
2019-05-26T19:29:33.508Z,100352.05
2019-05-26T19:32:05.129Z,100352.05
2019-05-26T19:34:36.213Z,100351.21
2019-05-26T19:37:07.612Z,100355.03
2019-05-26T19:39:39.575Z,100357.03
2019-05-26T19:42:10.432Z,100361.06
2019-05-26T19:44:41.714Z,100360.35
2019-05-26T19:47:12.858Z,100356.45
2019-05-26T19:49:44.898Z,100363.33
2019-05-26T19:52:16.518Z,100358.45
2019-05-26T19:54:48.009Z,100354.54
2019-05-26T19:57:19.404Z,100356.14
2019-05-26T19:59:50.537Z,100353.61
2019-05-26T20:02:21.402Z,100349.48
2019-05-26T20:04:52.191Z,100349.17
2019-05-26T20:07:23.620Z,100347.27
2019-05-26T20:09:56.328Z,100345.89
2019-05-26T20:12:27.795Z,100341.37
2019-05-26T20:14:58.650Z,100341.50
2019-05-26T20:17:30.044Z,100340.03
2019-05-26T20:20:03.524Z,100342.25
2019-05-26T20:22:36.109Z,100333.38
2019-05-26T20:25:10.495Z,100332.45
2019-05-26T20:27:43.555Z,100336.04
2019-05-26T20:30:16.083Z,100335.82
2019-05-26T20:32:46.787Z,100335.73
2019-05-26T20:35:18.067Z,100338.79
2019-05-26T20:37:48.862Z,100327.39
2019-05-26T20:40:19.678Z,100329.08
2019-05-26T20:42:50.338Z,100325.92
2019-05-26T20:45:21.116Z,100329.42
2019-05-26T20:47:51.880Z,100329.02
2019-05-26T20:50:29.361Z,100325.34
2019-05-26T20:52:55.918Z,100324.72
2019-05-26T20:55:26.596Z,100325.41
2019-05-26T20:57:59.219Z,100320.76
2019-05-26T21:00:29.833Z,100310.95
2019-05-26T21:03:00.711Z,100317.83
2019-05-26T21:05:32.811Z,100309.09
2019-05-26T21:08:03.549Z,100312.05
2019-05-26T21:10:34.196Z,100308.05
2019-05-26T21:13:05.092Z,100311.55
2019-05-26T21:15:35.984Z,100306.50
2019-05-26T21:18:06.658Z,100310.12
2019-05-26T21:20:37.621Z,100307.09
2019-05-26T21:23:10.537Z,100309.11
2019-05-26T21:25:41.414Z,100304.48
2019-05-26T21:28:12.094Z,100305.56
2019-05-26T21:30:43.572Z,100306.53
2019-05-26T21:33:15.610Z,100305.06
2019-05-26T21:35:46.199Z,100308.98
2019-05-26T21:38:16.846Z,100304.66
2019-05-26T21:40:47.505Z,100298.55
2019-05-26T21:43:18.813Z,100303.95
2019-05-26T21:45:49.592Z,100301.95
2019-05-26T21:48:20.271Z,100298.80
2019-05-26T21:50:50.830Z,100304.19
2019-05-26T21:53:21.480Z,100305.08
2019-05-26T21:55:52.104Z,100307.09
2019-05-26T21:58:22.679Z,100300.41
2019-05-26T22:00:53.542Z,100305.69
2019-05-26T22:03:24.316Z,100300.42
2019-05-26T22:05:56.026Z,100300.73
2019-05-26T22:08:26.702Z,100303.80
2019-05-26T22:10:57.333Z,100297.47
2019-05-26T22:13:27.987Z,100301.27
2019-05-26T22:15:58.777Z,100296.84
2019-05-26T22:18:29.467Z,100299.47
2019-05-26T22:21:00.143Z,100295.67
2019-05-26T22:23:30.811Z,100292.41
2019-05-26T22:26:01.359Z,100289.13
2019-05-26T22:28:31.938Z,100288.18
2019-05-26T22:31:02.705Z,100284.91
2019-05-26T22:33:33.278Z,100279.11
2019-05-26T22:36:03.856Z,100270.36
2019-05-26T22:38:34.522Z,100263.61
2019-05-26T22:41:05.168Z,100264.77
2019-05-26T22:43:36.833Z,100265.52
2019-05-26T22:46:07.408Z,100262.35
2019-05-26T22:48:38.010Z,100271.95
2019-05-26T22:51:08.694Z,100264.98
2019-05-26T22:53:39.377Z,100263.30
2019-05-26T22:56:11.736Z,100254.44
2019-05-26T22:58:42.408Z,100259.82
2019-05-26T23:01:13.449Z,100259.40
2019-05-26T23:03:44.209Z,100257.50
2019-05-26T23:06:14.894Z,100257.19
2019-05-26T23:08:45.606Z,100256.34
2019-05-26T23:11:17.615Z,100253.50
2019-05-26T23:13:51.082Z,100255.59
2019-05-26T23:16:22.416Z,100258.97
2019-05-26T23:18:54.422Z,100262.03
2019-05-26T23:21:25.188Z,100257.17
2019-05-26T23:23:56.862Z,100249.38
2019-05-26T23:26:28.912Z,100251.38
2019-05-26T23:29:00.173Z,100254.42
2019-05-26T23:31:32.187Z,100245.88
2019-05-26T23:34:04.252Z,100248.30
2019-05-26T23:36:36.270Z,100240.70
2019-05-26T23:39:08.330Z,100243.66
2019-05-26T23:41:40.713Z,100245.88
2019-05-26T23:44:12.726Z,100243.56
2019-05-26T23:46:43.477Z,100238.82
2019-05-26T23:49:13.987Z,100241.35
2019-05-26T23:51:44.591Z,100243.88
2019-05-26T23:54:15.351Z,100245.78
2019-05-26T23:56:46.034Z,100242.09
2019-05-26T23:59:16.796Z,100239.12
